createdAt,value
2018-05-16T00:01:41.712Z,16.04
2018-05-16T00:04:12.745Z,15.99
2018-05-16T00:06:43.745Z,15.93
2018-05-16T00:09:14.737Z,15.95
2018-05-16T00:11:45.720Z,15.96
2018-05-16T00:14:16.731Z,15.98
2018-05-16T00:16:47.710Z,15.98
2018-05-16T00:19:18.772Z,15.95
2018-05-16T00:21:49.760Z,15.90
2018-05-16T00:24:20.775Z,15.82
2018-05-16T00:26:51.760Z,15.80
2018-05-16T00:29:22.824Z,15.77
2018-05-16T00:31:53.802Z,15.68
2018-05-16T00:34:24.795Z,15.61
2018-05-16T00:36:55.794Z,15.56
2018-05-16T00:39:26.820Z,15.46
2018-05-16T00:41:57.811Z,15.38
2018-05-16T00:44:28.828Z,15.33
2018-05-16T00:46:59.849Z,15.36
2018-05-16T00:49:30.854Z,15.43
2018-05-16T00:52:01.861Z,15.48
2018-05-16T00:54:32.878Z,15.51
2018-05-16T00:57:03.869Z,15.54
2018-05-16T00:59:34.911Z,15.56
2018-05-16T01:02:05.856Z,15.62
2018-05-16T01:04:36.853Z,15.65
2018-05-16T01:07:07.855Z,15.68
2018-05-16T01:09:38.853Z,15.70
2018-05-16T01:12:09.847Z,15.74
2018-05-16T01:14:40.854Z,15.79
2018-05-16T01:17:11.845Z,15.80
2018-05-16T01:19:42.858Z,15.82
2018-05-16T01:22:13.846Z,15.84
2018-05-16T01:24:44.872Z,15.81
2018-05-16T01:27:15.879Z,15.81
2018-05-16T01:29:46.915Z,15.75
2018-05-16T01:32:17.950Z,15.78
2018-05-16T01:34:48.949Z,15.80
2018-05-16T01:37:19.925Z,15.80
2018-05-16T01:39:50.987Z,15.83
2018-05-16T01:42:21.934Z,15.80
2018-05-16T01:44:52.929Z,15.82
2018-05-16T01:47:23.922Z,15.82
2018-05-16T01:49:54.942Z,15.84
2018-05-16T01:52:25.938Z,15.85
2018-05-16T01:54:56.991Z,15.82
2018-05-16T01:57:28.008Z,15.84
2018-05-16T01:59:59.018Z,15.85
2018-05-16T02:02:29.982Z,15.84
2018-05-16T02:05:00.989Z,15.85
2018-05-16T02:07:31.960Z,15.86
2018-05-16T02:10:03.042Z,15.86
2018-05-16T02:12:34.053Z,15.89
2018-05-16T02:15:05.101Z,15.91
2018-05-16T02:17:36.082Z,15.97
2018-05-16T02:20:07.112Z,15.98
2018-05-16T02:22:38.110Z,15.99
2018-05-16T02:25:09.089Z,15.98
2018-05-16T02:27:40.097Z,15.98
2018-05-16T02:30:11.098Z,15.97
2018-05-16T02:32:42.151Z,15.94
2018-05-16T02:35:13.101Z,15.94
2018-05-16T02:37:44.102Z,15.88
2018-05-16T02:40:15.100Z,15.84
2018-05-16T02:42:46.131Z,15.84
2018-05-16T02:45:17.094Z,15.85
2018-05-16T02:47:48.126Z,15.84
2018-05-16T02:50:19.132Z,15.80
2018-05-16T02:52:50.187Z,15.79
2018-05-16T02:55:21.160Z,15.78
2018-05-16T02:57:52.161Z,15.72
2018-05-16T03:00:23.173Z,15.71
2018-05-16T03:02:54.162Z,15.70
2018-05-16T03:05:25.156Z,15.70
2018-05-16T03:07:56.192Z,15.78
2018-05-16T03:10:27.168Z,15.86
2018-05-16T03:12:58.179Z,15.90
2018-05-16T03:15:29.161Z,15.88
2018-05-16T03:18:00.227Z,15.90
2018-05-16T03:20:31.240Z,15.92
2018-05-16T03:23:02.265Z,15.97
2018-05-16T03:25:33.243Z,15.95
2018-05-16T03:28:04.267Z,15.97
2018-05-16T03:30:35.216Z,16.00
2018-05-16T03:33:06.213Z,15.95
2018-05-16T03:35:37.196Z,15.95
2018-05-16T03:38:08.237Z,15.94
2018-05-16T03:40:39.242Z,15.93
2018-05-16T03:43:10.226Z,15.96
2018-05-16T03:45:41.197Z,15.92
2018-05-16T03:48:12.249Z,15.95
2018-05-16T03:50:43.250Z,15.94
2018-05-16T03:53:14.253Z,15.91
2018-05-16T03:55:45.258Z,15.85
2018-05-16T03:58:28.425Z,15.85
2018-05-16T04:01:11.624Z,15.87
2018-05-16T04:03:54.878Z,15.84
2018-05-16T04:06:25.850Z,15.82
2018-05-16T04:08:56.863Z,15.82
2018-05-16T04:11:27.879Z,15.86
2018-05-16T04:13:58.904Z,15.88
2018-05-16T04:16:29.880Z,15.84
2018-05-16T04:19:00.876Z,15.82
2018-05-16T04:21:31.817Z,15.87
2018-05-16T04:24:02.828Z,15.90
2018-05-16T04:26:33.913Z,15.97
2018-05-16T04:29:04.937Z,15.95
2018-05-16T04:31:35.920Z,15.97
2018-05-16T04:34:06.992Z,16.01
2018-05-16T04:36:38.007Z,16.01
2018-05-16T04:39:08.993Z,16.06
2018-05-16T04:41:40.049Z,16.10
2018-05-16T04:44:11.070Z,16.13
2018-05-16T04:46:42.028Z,16.14
2018-05-16T04:49:13.050Z,16.18
2018-05-16T04:51:44.046Z,16.23
2018-05-16T04:54:15.103Z,16.25
2018-05-16T04:56:46.151Z,16.26
2018-05-16T04:59:17.159Z,16.31
2018-05-16T05:01:48.178Z,16.45
2018-05-16T05:04:19.168Z,16.59
2018-05-16T05:06:50.132Z,16.66
2018-05-16T05:09:21.134Z,16.73
2018-05-16T05:11:52.131Z,16.81
2018-05-16T05:14:23.134Z,16.85
2018-05-16T05:16:54.128Z,16.87
2018-05-16T05:19:25.126Z,16.90
2018-05-16T05:21:56.136Z,16.91
2018-05-16T05:24:27.154Z,17.01
2018-05-16T05:26:58.193Z,17.02
2018-05-16T05:29:29.175Z,17.05
2018-05-16T05:32:00.195Z,17.12
2018-05-16T05:34:31.161Z,17.19
2018-05-16T05:37:02.198Z,17.28
2018-05-16T05:39:33.246Z,17.32
2018-05-16T05:42:04.229Z,17.29
2018-05-16T05:44:35.253Z,17.33
2018-05-16T05:47:06.246Z,17.46
2018-05-16T05:49:37.249Z,17.56
2018-05-16T05:52:08.291Z,17.70
2018-05-16T05:54:39.280Z,17.83
2018-05-16T05:57:10.270Z,17.94
2018-05-16T05:59:41.244Z,17.96
2018-05-16T06:02:12.252Z,18.06
2018-05-16T06:04:43.284Z,18.16
2018-05-16T06:07:14.303Z,18.27
2018-05-16T06:09:45.290Z,18.35
2018-05-16T06:12:16.320Z,18.40
2018-05-16T06:14:47.330Z,18.47
2018-05-16T06:17:18.318Z,18.54
2018-05-16T06:19:49.344Z,18.63
2018-05-16T06:22:20.310Z,18.80
2018-05-16T06:24:51.320Z,18.87
2018-05-16T06:27:22.383Z,18.88
2018-05-16T06:29:53.712Z,18.94
2018-05-16T06:32:24.746Z,18.97
2018-05-16T06:34:55.762Z,19.01
2018-05-16T06:37:26.841Z,18.95
2018-05-16T06:39:57.815Z,18.89
2018-05-16T06:42:28.833Z,18.80
2018-05-16T06:44:59.848Z,18.84
2018-05-16T06:47:30.877Z,18.81
2018-05-16T06:50:01.888Z,18.80
2018-05-16T06:52:32.927Z,18.80
2018-05-16T06:55:03.985Z,19.03
2018-05-16T06:57:35.017Z,19.30
2018-05-16T07:00:06.026Z,19.48
2018-05-16T07:02:37.030Z,19.36
2018-05-16T07:05:08.041Z,19.11
2018-05-16T07:07:39.022Z,18.86
2018-05-16T07:10:09.972Z,18.66
2018-05-16T07:12:40.992Z,18.68
2018-05-16T07:15:11.969Z,18.70
2018-05-16T07:17:42.999Z,18.76
2018-05-16T07:20:14.007Z,18.94
2018-05-16T07:22:45.039Z,19.19
2018-05-16T07:25:16.072Z,19.23
2018-05-16T07:27:47.037Z,19.34
2018-05-16T07:30:18.033Z,19.42
2018-05-16T07:32:49.053Z,19.58
2018-05-16T07:35:20.151Z,19.54
2018-05-16T07:37:51.171Z,19.38
2018-05-16T07:40:22.206Z,19.21
2018-05-16T07:42:53.204Z,19.16
2018-05-16T07:45:24.220Z,19.10
2018-05-16T07:47:55.208Z,18.98
2018-05-16T07:50:26.227Z,18.75
2018-05-16T07:52:57.307Z,18.65
2018-05-16T07:55:28.270Z,18.63
2018-05-16T07:57:59.298Z,18.68
2018-05-16T08:00:30.271Z,18.93
2018-05-16T08:03:01.286Z,19.12
2018-05-16T08:05:32.276Z,19.45
2018-05-16T08:08:03.319Z,19.82
2018-05-16T08:10:34.307Z,20.26
2018-05-16T08:13:05.356Z,20.53
2018-05-16T08:15:36.351Z,20.58
2018-05-16T08:18:07.335Z,20.49
2018-05-16T08:20:38.405Z,20.27
2018-05-16T08:23:09.355Z,20.17
2018-05-16T08:25:40.430Z,20.14
2018-05-16T08:28:11.461Z,20.00
2018-05-16T08:30:49.485Z,20.01
2018-05-16T08:33:20.432Z,19.88
2018-05-16T08:35:51.489Z,19.83
2018-05-16T08:38:22.541Z,20.08
2018-05-16T08:40:53.521Z,20.01
2018-05-16T08:43:24.533Z,19.90
2018-05-16T08:45:55.548Z,19.92
2018-05-16T08:48:26.606Z,19.79
2018-05-16T08:50:57.573Z,19.87
2018-05-16T08:53:28.576Z,19.93
2018-05-16T08:55:59.588Z,19.94
2018-05-16T08:58:30.604Z,19.89
2018-05-16T09:01:01.584Z,19.99
2018-05-16T09:03:32.620Z,19.92
2018-05-16T09:06:03.642Z,19.92
2018-05-16T09:08:34.602Z,19.83
2018-05-16T09:11:05.603Z,19.84
2018-05-16T09:13:36.562Z,20.19
2018-05-16T09:16:07.602Z,20.46
2018-05-16T09:18:38.618Z,20.54
2018-05-16T09:21:09.596Z,20.71
2018-05-16T09:23:40.606Z,20.87
2018-05-16T09:26:11.598Z,20.96
2018-05-16T09:28:42.607Z,21.22
2018-05-16T09:31:13.573Z,21.47
2018-05-16T09:33:44.612Z,21.43
2018-05-16T09:36:15.582Z,21.43
2018-05-16T09:38:46.573Z,21.85
2018-05-16T09:41:17.556Z,22.31
2018-05-16T09:43:48.570Z,22.75
2018-05-16T09:46:19.732Z,22.86
2018-05-16T09:48:50.759Z,22.94
2018-05-16T09:51:21.898Z,23.00
2018-05-16T09:53:52.889Z,22.94
2018-05-16T09:56:23.973Z,22.64
2018-05-16T09:58:54.947Z,22.69
2018-05-16T10:01:25.960Z,22.72
2018-05-16T10:03:56.996Z,22.46
2018-05-16T10:06:28.023Z,22.19
2018-05-16T10:08:59.028Z,22.04
2018-05-16T10:11:30.162Z,21.82
2018-05-16T10:14:01.137Z,21.60
2018-05-16T10:16:32.166Z,21.64
2018-05-16T10:19:03.194Z,21.84
2018-05-16T10:21:34.213Z,22.12
2018-05-16T10:24:05.265Z,22.28
2018-05-16T10:26:36.232Z,22.25
2018-05-16T10:29:07.226Z,22.23
2018-05-16T10:31:38.194Z,22.31
2018-05-16T10:34:09.211Z,22.32
2018-05-16T10:36:40.172Z,22.21
2018-05-16T10:39:11.223Z,22.14
2018-05-16T10:41:42.210Z,22.08
2018-05-16T10:44:13.236Z,21.91
2018-05-16T10:46:44.264Z,21.80
2018-05-16T10:49:15.266Z,21.89
2018-05-16T10:51:46.280Z,21.97
2018-05-16T10:54:17.269Z,22.24
2018-05-16T10:56:48.262Z,22.22
2018-05-16T10:59:19.272Z,22.23
2018-05-16T11:01:50.255Z,22.21
2018-05-16T11:04:21.228Z,22.27
2018-05-16T11:06:52.227Z,22.39
2018-05-16T11:09:23.257Z,22.60
2018-05-16T11:11:54.309Z,22.78
2018-05-16T11:14:25.298Z,23.15
2018-05-16T11:16:56.322Z,23.63
2018-05-16T11:19:27.297Z,24.50
2018-05-16T11:21:58.300Z,25.08
2018-05-16T11:24:29.304Z,25.38
2018-05-16T11:27:00.318Z,25.31
2018-05-16T11:29:31.303Z,24.80
2018-05-16T11:32:02.332Z,24.43
2018-05-16T11:34:33.318Z,24.28
2018-05-16T11:37:04.366Z,24.16
2018-05-16T11:39:35.327Z,24.77
2018-05-16T11:42:06.330Z,25.27
2018-05-16T11:44:37.321Z,25.43
2018-05-16T11:47:08.331Z,25.94
2018-05-16T11:49:39.352Z,26.50
2018-05-16T11:52:10.334Z,27.33
2018-05-16T11:54:41.356Z,27.88
2018-05-16T11:57:12.330Z,28.27
2018-05-16T11:59:43.367Z,28.65
2018-05-16T12:02:14.378Z,29.01
2018-05-16T12:04:45.383Z,29.00
2018-05-16T12:07:16.394Z,29.11
2018-05-16T12:09:47.391Z,29.57
2018-05-16T12:12:18.386Z,29.49
2018-05-16T12:14:49.455Z,29.23
2018-05-16T12:17:20.451Z,29.00
2018-05-16T12:19:51.439Z,28.98
2018-05-16T12:22:22.410Z,29.19
2018-05-16T12:24:53.391Z,29.27
2018-05-16T12:27:24.412Z,28.71
2018-05-16T12:29:55.492Z,27.66
2018-05-16T12:32:26.457Z,27.36
2018-05-16T12:34:57.427Z,26.92
2018-05-16T12:37:28.473Z,26.56
2018-05-16T12:39:59.466Z,26.67
2018-05-16T12:42:30.463Z,27.57
2018-05-16T12:45:01.462Z,28.15
2018-05-16T12:47:32.456Z,28.22
2018-05-16T12:50:03.490Z,28.30
2018-05-16T12:52:34.503Z,28.40
2018-05-16T12:55:05.504Z,28.38
2018-05-16T12:57:36.449Z,27.84
2018-05-16T13:00:07.476Z,27.48
2018-05-16T13:02:38.462Z,27.48
2018-05-16T13:05:09.469Z,27.30
2018-05-16T13:07:40.435Z,27.06
2018-05-16T13:10:11.492Z,26.44
2018-05-16T13:12:42.494Z,24.12
2018-05-16T13:15:13.507Z,21.50
2018-05-16T13:17:44.582Z,19.00
2018-05-16T13:20:15.586Z,17.40
2018-05-16T13:22:46.582Z,16.68
2018-05-16T13:25:17.618Z,16.26
2018-05-16T13:27:48.617Z,16.01
2018-05-16T13:30:19.622Z,15.91
2018-05-16T13:32:50.598Z,16.03
2018-05-16T13:35:21.634Z,16.02
2018-05-16T13:37:52.581Z,16.02
2018-05-16T13:40:23.684Z,16.13
2018-05-16T13:42:54.664Z,16.18
2018-05-16T13:45:25.631Z,16.25
2018-05-16T13:47:56.616Z,16.32
2018-05-16T13:50:27.562Z,16.38
2018-05-16T13:52:58.559Z,16.44
2018-05-16T13:55:29.572Z,16.52
2018-05-16T13:58:00.590Z,16.64
2018-05-16T14:00:31.563Z,16.70
2018-05-16T14:03:02.608Z,16.76
2018-05-16T14:05:33.669Z,16.81
2018-05-16T14:08:04.684Z,16.88
2018-05-16T14:10:35.697Z,16.95
2018-05-16T14:13:06.715Z,17.02
2018-05-16T14:15:37.752Z,17.09
2018-05-16T14:18:08.705Z,17.19
2018-05-16T14:20:39.738Z,17.29
2018-05-16T14:23:10.762Z,17.41
2018-05-16T14:25:41.794Z,17.46
2018-05-16T14:28:12.852Z,17.60
2018-05-16T14:30:43.947Z,17.86
2018-05-16T14:33:14.967Z,18.13
2018-05-16T14:35:45.982Z,18.40
2018-05-16T14:38:16.970Z,18.62
2018-05-16T14:40:48.011Z,18.84
2018-05-16T14:43:19.022Z,19.14
2018-05-16T14:45:50.028Z,19.33
2018-05-16T14:48:20.990Z,19.45
2018-05-16T14:50:52.009Z,19.76
2018-05-16T14:53:23.036Z,19.96
2018-05-16T14:55:54.054Z,20.16
2018-05-16T14:58:25.047Z,20.20
2018-05-16T15:00:56.218Z,20.23
2018-05-16T15:03:27.199Z,20.34
2018-05-16T15:05:58.276Z,20.58
2018-05-16T15:08:29.230Z,20.87
2018-05-16T15:11:00.272Z,21.16
2018-05-16T15:13:31.258Z,21.46
2018-05-16T15:16:02.266Z,21.76
2018-05-16T15:18:33.250Z,21.93
2018-05-16T15:21:04.265Z,21.90
2018-05-16T15:23:35.266Z,21.78
2018-05-16T15:26:06.399Z,21.45
2018-05-16T15:28:37.371Z,21.13
2018-05-16T15:31:08.377Z,20.97
2018-05-16T15:33:39.343Z,21.12
2018-05-16T15:36:10.394Z,21.62
2018-05-16T15:38:41.402Z,21.97
2018-05-16T15:41:12.413Z,22.23
2018-05-16T15:43:43.471Z,22.76
2018-05-16T15:46:14.491Z,22.94
2018-05-16T15:48:45.537Z,22.96
2018-05-16T15:51:16.522Z,22.49
2018-05-16T15:53:47.552Z,22.23
2018-05-16T15:56:18.519Z,22.03
2018-05-16T15:58:49.547Z,21.64
2018-05-16T16:01:20.602Z,21.09
2018-05-16T16:03:51.647Z,20.34
2018-05-16T16:06:22.614Z,19.84
2018-05-16T16:08:53.621Z,19.52
2018-05-16T16:11:24.618Z,19.31
2018-05-16T16:13:55.723Z,19.33
2018-05-16T16:16:26.696Z,19.31
2018-05-16T16:18:57.896Z,19.24
2018-05-16T16:21:28.915Z,19.28
2018-05-16T16:23:59.935Z,19.30
2018-05-16T16:26:30.930Z,19.30
2018-05-16T16:29:01.964Z,19.24
2018-05-16T16:31:32.987Z,19.32
2018-05-16T16:34:04.060Z,19.43
2018-05-16T16:36:35.041Z,19.47
2018-05-16T16:39:06.157Z,19.55
2018-05-16T16:41:37.084Z,19.58
2018-05-16T16:44:08.091Z,19.70
2018-05-16T16:46:39.141Z,19.82
2018-05-16T16:49:10.111Z,19.88
2018-05-16T16:51:41.153Z,19.72
2018-05-16T16:54:12.194Z,19.56
2018-05-16T16:56:43.310Z,19.40
2018-05-16T16:59:14.390Z,19.22
2018-05-16T17:01:45.415Z,18.97
2018-05-16T17:04:16.574Z,18.78
2018-05-16T17:06:47.552Z,18.70
2018-05-16T17:09:18.607Z,18.62
2018-05-16T17:11:49.590Z,18.46
2018-05-16T17:14:20.667Z,18.37
2018-05-16T17:16:51.751Z,18.43
2018-05-16T17:19:22.803Z,18.51
2018-05-16T17:21:53.838Z,18.52
2018-05-16T17:24:24.838Z,18.50
2018-05-16T17:26:55.978Z,18.45
2018-05-16T17:29:26.916Z,18.44
2018-05-16T17:31:57.929Z,18.45
2018-05-16T17:34:28.894Z,18.30
2018-05-16T17:37:00.067Z,18.18
2018-05-16T17:39:31.111Z,18.13
2018-05-16T17:42:02.142Z,18.11
2018-05-16T17:44:33.170Z,18.11
2018-05-16T17:47:04.226Z,18.05
2018-05-16T17:49:35.210Z,17.96
2018-05-16T17:52:06.350Z,17.79
2018-05-16T17:54:37.395Z,17.68
2018-05-16T17:57:08.530Z,17.63
2018-05-16T17:59:39.526Z,17.63
2018-05-16T18:02:10.571Z,17.58
2018-05-16T18:04:41.558Z,17.51
2018-05-16T18:07:12.637Z,17.46
2018-05-16T18:09:43.689Z,17.39
2018-05-16T18:12:14.708Z,17.36
2018-05-16T18:17:51.279Z,17.29
2018-05-16T18:20:22.288Z,17.34
2018-05-16T18:22:53.353Z,17.35
2018-05-16T18:25:24.358Z,17.39
2018-05-16T18:27:55.469Z,17.39
2018-05-16T18:30:26.444Z,17.35
2018-05-16T18:32:57.453Z,17.28
2018-05-16T18:35:28.389Z,17.21
2018-05-16T18:37:59.384Z,17.19
2018-05-16T18:40:30.372Z,17.20
2018-05-16T18:43:03.193Z,17.25
2018-05-16T18:45:34.308Z,17.23
2018-05-16T18:48:05.297Z,17.20
2018-05-16T18:50:36.320Z,17.19
2018-05-16T18:53:07.294Z,17.15
2018-05-16T18:55:38.384Z,17.11
2018-05-16T18:58:09.386Z,17.10
2018-05-16T19:00:40.439Z,17.06
2018-05-16T19:03:11.465Z,17.04
2018-05-16T19:05:42.491Z,17.03
2018-05-16T19:08:13.546Z,16.95
2018-05-16T19:10:44.540Z,16.89
2018-05-16T19:13:15.550Z,16.72
2018-05-16T19:15:46.550Z,16.65
2018-05-16T19:18:17.568Z,16.57
2018-05-16T19:20:48.577Z,16.54
2018-05-16T19:23:19.576Z,16.51
2018-05-16T19:25:50.588Z,16.49
2018-05-16T19:28:21.610Z,16.45
2018-05-16T19:30:52.674Z,16.37
2018-05-16T19:33:23.687Z,16.34
2018-05-16T19:35:54.731Z,16.26
2018-05-16T19:38:25.759Z,16.19
2018-05-16T19:40:56.771Z,16.20
2018-05-16T19:43:27.812Z,16.22
2018-05-16T19:45:58.862Z,16.17
2018-05-16T19:48:29.867Z,16.13
2018-05-16T19:51:00.891Z,16.04
2018-05-16T19:53:31.918Z,15.98
2018-05-16T19:56:02.919Z,15.91
2018-05-16T19:58:34.024Z,15.89
2018-05-16T20:01:04.935Z,15.84
2018-05-16T20:03:35.936Z,15.81
2018-05-16T20:06:06.939Z,15.74
2018-05-16T20:08:38.016Z,15.67
2018-05-16T20:11:09.073Z,15.66
2018-05-16T20:13:40.102Z,15.59
2018-05-16T20:16:11.110Z,15.60
2018-05-16T20:18:42.165Z,15.63
2018-05-16T20:21:13.193Z,15.64
2018-05-16T20:23:44.203Z,15.63
2018-05-16T20:26:15.231Z,15.59
2018-05-16T20:28:46.227Z,15.54
2018-05-16T20:31:17.250Z,15.51
2018-05-16T20:33:48.286Z,15.49
2018-05-16T20:36:19.378Z,15.55
2018-05-16T20:38:50.371Z,15.58
2018-05-16T20:41:21.417Z,15.56
2018-05-16T20:43:52.433Z,15.51
2018-05-16T20:46:23.434Z,15.49
2018-05-16T20:48:54.534Z,15.49
2018-05-16T20:51:25.553Z,15.50
2018-05-16T20:53:56.611Z,15.53
2018-05-16T20:56:27.591Z,15.56
2018-05-16T20:58:58.690Z,15.59
2018-05-16T21:01:29.686Z,15.63
2018-05-16T21:04:00.781Z,15.64
2018-05-16T21:06:31.847Z,15.68
2018-05-16T21:09:02.943Z,15.68
2018-05-16T21:11:33.986Z,15.68
2018-05-16T21:14:04.971Z,15.64
2018-05-16T21:16:35.930Z,15.55
2018-05-16T21:19:06.925Z,15.49
2018-05-16T21:21:37.924Z,15.49
2018-05-16T21:24:08.928Z,15.43
2018-05-16T21:26:39.906Z,15.41
2018-05-16T21:29:10.971Z,15.48
2018-05-16T21:31:41.946Z,15.57
2018-05-16T21:34:12.983Z,15.64
2018-05-16T21:36:43.969Z,15.66
2018-05-16T21:39:15.011Z,15.63
2018-05-16T21:41:46.011Z,15.67
2018-05-16T21:44:17.001Z,15.71
2018-05-16T21:46:47.969Z,15.75
2018-05-16T21:49:18.957Z,15.80
2018-05-16T21:51:49.959Z,15.80
2018-05-16T21:54:20.951Z,15.86
2018-05-16T21:56:51.934Z,15.91
2018-05-16T21:59:22.938Z,15.93
2018-05-16T22:01:53.914Z,15.90
2018-05-16T22:04:24.951Z,15.94
2018-05-16T22:06:55.927Z,15.89
2018-05-16T22:09:26.913Z,15.91
2018-05-16T22:11:57.913Z,15.97
2018-05-16T22:14:28.902Z,16.04
2018-05-16T22:16:59.953Z,16.03
2018-05-16T22:19:30.954Z,16.00
2018-05-16T22:22:01.970Z,16.03
2018-05-16T22:24:33.011Z,16.00
2018-05-16T22:27:04.040Z,15.95
2018-05-16T22:29:35.032Z,15.96
2018-05-16T22:32:12.035Z,15.97
2018-05-16T22:34:49.136Z,15.73
2018-05-16T22:37:26.185Z,15.52
2018-05-16T22:40:03.355Z,15.35
2018-05-16T22:42:34.286Z,15.34
2018-05-16T22:45:08.140Z,15.44
2018-05-16T22:47:39.151Z,15.55
2018-05-16T22:50:10.190Z,15.61
2018-05-16T22:52:41.175Z,15.58
2018-05-16T22:55:12.187Z,15.54
2018-05-16T22:57:43.220Z,15.58
2018-05-16T23:00:17.145Z,15.57
2018-05-16T23:02:48.155Z,15.59
2018-05-16T23:05:19.121Z,15.62
2018-05-16T23:07:50.140Z,15.66
2018-05-16T23:10:21.124Z,15.74
2018-05-16T23:12:52.139Z,15.78
2018-05-16T23:15:23.128Z,15.79
2018-05-16T23:17:54.248Z,15.80
2018-05-16T23:20:25.230Z,15.82
2018-05-16T23:22:56.222Z,15.81
2018-05-16T23:25:27.192Z,15.82
2018-05-16T23:27:58.201Z,15.83
2018-05-16T23:30:29.157Z,15.86
2018-05-16T23:33:00.222Z,15.90
2018-05-16T23:35:31.216Z,15.89
2018-05-16T23:38:02.200Z,15.83
2018-05-16T23:40:33.184Z,15.84
2018-05-16T23:43:04.167Z,15.89
2018-05-16T23:45:35.134Z,15.93
2018-05-16T23:48:06.181Z,15.97
2018-05-16T23:50:37.136Z,15.97
2018-05-16T23:53:08.144Z,15.99
2018-05-16T23:55:39.152Z,16.05
2018-05-16T23:58:10.187Z,16.10
